Time;durP1;ratioP1;P1;durP2;ratioP2;P2;SDS_P1;SDS_P2;PMS_P1;PMS_P2;Temp;Humidity;BMP_temperature;BMP_pressure;BME280_temperature;BME280_humidity;BME280_pressure;Samples;Min_cycle;Max_cycle;Signal;HPM_P1;HPM_P2
2023/09/18 00:00:56;;;;;;;;;18.00;18.00;;;;;23.60;50.04;97087.23;116468;1191;73113;-67
2023/09/18 00:03:38;;;;;;;;;15.50;15.50;;;;;23.61;50.15;97085.50;116531;1191;90622;-70
2023/09/18 00:06:08;;;;;;;;;17.00;17.00;;;;;23.63;50.11;97084.39;116480;1180;98297;-67
2023/09/18 00:08:39;;;;;;;;;17.00;17.00;;;;;23.56;50.23;97081.50;116585;1180;92000;-67
2023/09/18 00:11:07;;;;;;;;;16.00;16.00;;;;;23.57;50.32;97083.17;116759;1179;73315;-72
2023/09/18 00:13:35;;;;;;;;;17.00;17.00;;;;;23.58;50.18;97084.38;116637;1177;91316;-66
2023/09/18 00:16:03;;;;;;;;;14.50;14.50;;;;;23.56;50.29;97085.54;116501;1178;97810;-68
2023/09/18 00:18:32;;;;;;;;;19.50;18.00;;;;;23.53;50.28;97085.02;116573;1179;91002;-72
2023/09/18 00:21:00;;;;;;;;;16.00;16.00;;;;;23.57;50.07;97086.02;116579;1184;72909;-71
2023/09/18 00:23:28;;;;;;;;;17.00;17.00;;;;;23.54;50.07;97083.20;116633;1180;90481;-70
2023/09/18 00:25:56;;;;;;;;;18.00;18.00;;;;;23.54;50.26;97081.67;116575;1179;97829;-68
2023/09/18 00:28:24;;;;;;;;;16.00;16.00;;;;;23.55;50.07;97079.57;116647;1190;92146;-68
2023/09/18 00:30:53;;;;;;;;;16.50;15.50;;;;;23.49;50.28;97079.36;116576;1191;74134;-65
2023/09/18 00:33:21;;;;;;;;;14.50;14.50;;;;;23.52;50.17;97080.27;116597;1181;91438;-70
2023/09/18 00:35:50;;;;;;;;;15.50;15.50;;;;;23.48;50.23;97080.53;116532;1177;99016;-65
2023/09/18 00:38:19;;;;;;;;;15.00;15.00;;;;;23.49;50.25;97082.75;116689;1183;91197;-66
2023/09/18 00:40:47;;;;;;;;;17.00;17.00;;;;;23.48;50.29;97080.79;116576;1191;74057;-64
2023/09/18 00:43:17;;;;;;;;;18.50;18.50;;;;;23.48;50.20;97077.48;116618;1180;90511;-64
2023/09/18 00:45:47;;;;;;;;;17.00;17.00;;;;;23.48;50.16;97076.94;116510;1190;98134;-64
2023/09/18 00:48:16;;;;;;;;;17.50;16.00;;;;;23.44;50.35;97075.22;116642;1180;92302;-63
2023/09/18 00:50:45;;;;;;;;;17.00;17.00;;;;;23.47;50.31;97076.30;116556;1191;73389;-63
2023/09/18 00:53:17;;;;;;;;;19.00;18.00;;;;;23.44;50.28;97074.80;116627;1190;89539;-64
2023/09/18 00:55:45;;;;;;;;;16.00;16.00;;;;;23.42;50.37;97077.46;116524;1177;97529;-66
2023/09/18 00:58:13;;;;;;;;;16.00;13.00;;;;;23.42;50.35;97075.03;116620;1184;92096;-63
2023/09/18 01:00:41;;;;;;;;;14.00;13.00;;;;;23.45;50.24;97079.79;116571;1187;73222;-69
2023/09/18 01:03:10;;;;;;;;;15.00;15.00;;;;;23.38;50.37;97076.41;116620;1191;90606;-70
2023/09/18 01:05:38;;;;;;;;;17.00;17.00;;;;;23.34;50.38;97078.84;116557;1180;97252;-67
2023/09/18 01:08:07;;;;;;;;;16.00;16.00;;;;;23.43;50.09;97077.05;116618;1190;91014;-68
2023/09/18 01:10:53;;;;;;;;;14.00;14.00;;;;;23.39;50.24;97073.63;116494;1188;72986;-66
2023/09/18 01:13:28;;;;;;;;;17.00;17.00;;;;;23.43;50.01;97075.42;116611;1183;91193;-70
2023/09/18 01:16:02;;;;;;;;;14.00;14.00;;;;;23.43;49.98;97076.56;116541;1178;97973;-67
2023/09/18 01:18:30;;;;;;;;;13.50;13.50;;;;;23.42;50.14;97074.35;116656;1191;91911;-69
2023/09/18 01:20:58;;;;;;;;;15.00;14.00;;;;;23.45;50.20;97075.00;116593;1180;73014;-69
2023/09/18 01:23:26;;;;;;;;;16.50;16.50;;;;;23.45;49.90;97073.46;116647;1180;91686;-72
2023/09/18 01:25:54;;;;;;;;;16.00;16.00;;;;;23.39;50.17;97071.93;116549;1190;98023;-65
2023/09/18 01:28:22;;;;;;;;;16.00;14.50;;;;;23.37;50.20;97071.60;116650;1190;91014;-69
2023/09/18 01:30:50;;;;;;;;;14.00;14.00;;;;;23.37;50.21;97073.02;116521;1178;73828;-67
2023/09/18 01:33:20;;;;;;;;;16.00;15.00;;;;;23.41;50.05;97074.77;116652;1177;91138;-68
2023/09/18 01:35:50;;;;;;;;;13.50;13.50;;;;;23.35;50.26;97078.65;116618;1177;98380;-65
2023/09/18 01:38:19;;;;;;;;;16.00;15.00;;;;;23.37;50.18;97077.38;116619;1186;91996;-66
2023/09/18 01:40:47;;;;;;;;;17.00;16.50;;;;;23.35;50.18;97072.11;116560;1177;72767;-66
2023/09/18 01:43:15;;;;;;;;;17.00;17.00;;;;;23.38;49.95;97069.45;116657;1178;91368;-67
2023/09/18 01:45:43;;;;;;;;;17.50;17.50;;;;;23.34;50.16;97064.88;116503;1187;97963;-66
2023/09/18 01:48:11;;;;;;;;;16.50;15.50;;;;;23.37;50.06;97063.88;116640;1191;92953;-70
2023/09/18 01:50:40;;;;;;;;;15.50;15.50;;;;;23.34;50.13;97062.15;116550;1177;73384;-69
2023/09/18 01:53:08;;;;;;;;;15.50;15.50;;;;;23.34;50.08;97061.17;116652;1184;91146;-70
2023/09/18 01:55:36;;;;;;;;;19.00;17.00;;;;;23.29;50.23;97060.05;116503;1177;98039;-69
2023/09/18 01:58:05;;;;;;;;;15.50;15.50;;;;;23.32;50.15;97058.34;116831;1177;92898;-64
2023/09/18 02:00:33;;;;;;;;;15.00;13.50;;;;;23.29;50.25;97053.20;116795;1177;73666;-66
2023/09/18 02:03:04;;;;;;;;;15.00;13.50;;;;;23.28;50.31;97053.70;116664;1191;90363;-71
2023/09/18 02:05:50;;;;;;;;;15.00;15.00;;;;;23.36;49.94;97052.34;116521;1181;97375;-66
2023/09/18 02:08:18;;;;;;;;;14.50;14.00;;;;;23.40;49.77;97050.73;116727;1180;92001;-66
2023/09/18 02:10:47;;;;;;;;;15.00;15.00;;;;;23.38;49.89;97046.55;116573;1190;72727;-63
2023/09/18 02:13:15;;;;;;;;;16.00;16.00;;;;;23.31;49.98;97046.68;116615;1177;90619;-66
2023/09/18 02:15:43;;;;;;;;;18.00;18.00;;;;;23.30;49.93;97045.73;116767;1178;97838;-65
2023/09/18 02:18:11;;;;;;;;;18.50;18.50;;;;;23.35;49.80;97047.83;116655;1177;92189;-64
2023/09/18 02:20:41;;;;;;;;;15.00;15.00;;;;;23.35;49.76;97048.59;116765;1177;72408;-66
2023/09/18 02:23:09;;;;;;;;;16.00;15.00;;;;;23.37;49.86;97048.80;116756;1181;90117;-67
2023/09/18 02:25:40;;;;;;;;;16.00;16.00;;;;;23.33;49.79;97048.65;116540;1177;96715;-67
2023/09/18 02:28:08;;;;;;;;;17.50;16.50;;;;;23.29;49.86;97047.57;116614;1179;91951;-65
2023/09/18 02:30:36;;;;;;;;;16.00;16.00;;;;;23.26;49.99;97050.42;116729;1190;74239;-65
2023/09/18 02:33:04;;;;;;;;;16.00;15.00;;;;;23.23;50.04;97047.08;116709;1182;91103;-66
2023/09/18 02:35:33;;;;;;;;;15.00;15.00;;;;;23.21;50.05;97045.39;116608;1183;97866;-71
2023/09/18 02:38:02;;;;;;;;;13.00;12.00;;;;;23.17;50.16;97045.39;116565;1190;92098;-70
2023/09/18 02:40:30;;;;;;;;;15.50;14.50;;;;;23.13;50.16;97044.18;116490;1177;73123;-71
2023/09/18 02:42:58;;;;;;;;;16.50;16.50;;;;;23.15;50.18;97047.17;116595;1179;91276;-71
2023/09/18 02:45:27;;;;;;;;;15.00;15.00;;;;;23.15;50.09;97044.60;116668;1190;98622;-66
2023/09/18 02:47:54;;;;;;;;;14.00;14.00;;;;;23.17;50.18;97048.50;116572;1177;93027;-69
2023/09/18 02:50:23;;;;;;;;;16.50;16.50;;;;;23.15;50.13;97048.94;116536;1191;73574;-68
2023/09/18 02:52:51;;;;;;;;;17.00;17.00;;;;;23.19;50.04;97051.86;116603;1190;91010;-68
2023/09/18 02:55:19;;;;;;;;;17.00;17.00;;;;;23.13;50.25;97047.92;116490;1178;98760;-66
2023/09/18 02:57:47;;;;;;;;;20.00;20.00;;;;;23.15;50.18;97052.95;116606;1177;90605;-66
2023/09/18 03:00:16;;;;;;;;;18.00;18.00;;;;;23.15;50.05;97055.79;116564;1183;73034;-67
2023/09/18 03:02:44;;;;;;;;;14.00;14.00;;;;;23.12;50.16;97058.86;116606;1181;90623;-66
2023/09/18 03:05:12;;;;;;;;;16.50;16.50;;;;;23.10;50.31;97058.27;116536;1183;99085;-64
2023/09/18 03:07:41;;;;;;;;;14.50;14.50;;;;;23.11;50.17;97058.23;116680;1177;91766;-66
2023/09/18 03:10:13;;;;;;;;;18.00;18.00;;;;;23.10;50.20;97055.33;116508;1180;72743;-68
2023/09/18 03:12:41;;;;;;;;;18.00;18.00;;;;;23.09;50.10;97057.65;116911;1177;90169;-70
2023/09/18 03:15:09;;;;;;;;;13.50;13.50;;;;;23.05;50.11;97057.95;116507;1177;97819;-66
2023/09/18 03:17:37;;;;;;;;;15.00;15.00;;;;;23.08;50.10;97060.79;116617;1177;92941;-65
2023/09/18 03:20:07;;;;;;;;;17.50;15.50;;;;;23.14;49.90;97057.14;116509;1191;72562;-64
2023/09/18 03:22:35;;;;;;;;;15.00;15.00;;;;;23.12;49.90;97057.20;116620;1181;90602;-66
2023/09/18 03:25:03;;;;;;;;;13.00;12.00;;;;;23.10;49.94;97054.94;116503;1190;96493;-71
2023/09/18 03:27:31;;;;;;;;;16.00;16.00;;;;;23.13;49.76;97054.83;116609;1191;92443;-66
2023/09/18 03:29:59;;;;;;;;;13.50;13.50;;;;;23.13;49.80;97058.03;116526;1178;73585;-66
2023/09/18 03:32:28;;;;;;;;;17.50;16.00;;;;;23.14;49.71;97057.08;116735;1177;90890;-66
2023/09/18 03:34:56;;;;;;;;;16.50;16.50;;;;;23.15;49.71;97057.66;116494;1177;98447;-63
2023/09/18 03:37:24;;;;;;;;;15.50;15.50;;;;;23.10;49.74;97055.10;116718;1177;92309;-65
2023/09/18 03:39:52;;;;;;;;;15.50;15.50;;;;;23.05;49.98;97059.71;116561;1191;73533;-67
2023/09/18 03:42:20;;;;;;;;;16.00;16.00;;;;;23.02;50.07;97059.04;116577;1191;89943;-68
2023/09/18 03:44:48;;;;;;;;;15.00;15.00;;;;;23.01;50.13;97058.64;116514;1191;98198;-65
2023/09/18 03:47:15;;;;;;;;;15.00;15.00;;;;;23.01;49.91;97065.89;116623;1180;91876;-66
2023/09/18 03:49:44;;;;;;;;;16.00;16.00;;;;;23.01;49.97;97067.01;116497;1177;73481;-64
2023/09/18 03:52:12;;;;;;;;;19.00;18.00;;;;;23.03;49.89;97069.45;116593;1177;91338;-64
2023/09/18 03:54:40;;;;;;;;;17.50;15.00;;;;;23.05;49.75;97069.14;116426;1178;97802;-63
2023/09/18 03:57:08;;;;;;;;;13.50;13.50;;;;;23.02;49.85;97070.80;116565;1180;92364;-69
2023/09/18 03:59:36;;;;;;;;;15.00;14.00;;;;;22.99;49.82;97072.73;116633;1178;73755;-61
2023/09/18 04:02:05;;;;;;;;;15.00;14.50;;;;;22.98;49.69;97073.95;116753;1178;90846;-68
2023/09/18 04:04:33;;;;;;;;;18.00;18.00;;;;;23.03;49.69;97076.28;116489;1177;98257;-72
2023/09/18 04:07:05;;;;;;;;;14.00;13.50;;;;;23.06;49.61;97077.45;116556;1191;91636;-69
2023/09/18 04:09:36;;;;;;;;;16.00;16.00;;;;;23.04;49.61;97081.80;116649;1178;74086;-68
2023/09/18 04:12:08;;;;;;;;;17.50;16.50;;;;;23.05;49.65;97080.05;116597;1181;91469;-66
2023/09/18 04:14:36;;;;;;;;;18.50;17.00;;;;;23.05;49.88;97081.14;116516;1191;98064;-65
2023/09/18 04:17:04;;;;;;;;;15.00;14.50;;;;;23.13;49.73;97083.27;116739;1191;91878;-66
2023/09/18 04:19:32;;;;;;;;;16.50;14.00;;;;;23.30;49.41;97080.52;116598;1179;73574;-70
2023/09/18 04:22:00;;;;;;;;;15.00;15.00;;;;;23.39;49.30;97083.87;116758;1187;90964;-64
2023/09/18 04:24:28;;;;;;;;;18.50;16.50;;;;;23.33;49.51;97085.14;116520;1187;97312;-67
2023/09/18 04:26:59;;;;;;;;;18.00;18.00;;;;;23.43;49.16;97081.58;116610;1187;91559;-68
2023/09/18 04:29:27;;;;;;;;;18.50;18.50;;;;;23.46;49.40;97084.34;116544;1177;73352;-70
2023/09/18 04:31:56;;;;;;;;;16.00;16.00;;;;;23.47;49.45;97081.91;116625;1178;90410;-64
2023/09/18 04:34:24;;;;;;;;;16.50;16.50;;;;;23.44;49.32;97080.58;116767;1181;97448;-70
2023/09/18 04:36:53;;;;;;;;;17.50;17.00;;;;;23.54;49.01;97081.16;116845;1177;91466;-63
2023/09/18 04:39:21;;;;;;;;;16.00;16.00;;;;;23.56;48.69;97080.79;116532;1183;73393;-67
2023/09/18 04:41:49;;;;;;;;;18.50;18.50;;;;;23.38;48.55;97079.60;116632;1177;90451;-66
2023/09/18 04:44:17;;;;;;;;;17.00;16.00;;;;;23.39;48.46;97082.23;116543;1177;98035;-66
2023/09/18 04:46:45;;;;;;;;;17.50;16.00;;;;;23.43;48.60;97080.84;116540;1177;92978;-64
2023/09/18 04:49:14;;;;;;;;;21.00;19.00;;;;;23.41;48.68;97083.64;116558;1178;73810;-62
2023/09/18 04:51:42;;;;;;;;;24.00;19.00;;;;;23.40;48.55;97081.65;116622;1190;90984;-64
2023/09/18 04:54:10;;;;;;;;;24.00;22.00;;;;;23.37;48.28;97083.53;116434;1178;98408;-66
2023/09/18 04:56:38;;;;;;;;;21.00;21.00;;;;;23.30;48.34;97085.89;116567;1178;92985;-65
2023/09/18 04:59:06;;;;;;;;;19.50;18.00;;;;;23.29;48.12;97085.13;116559;1182;73069;-63
2023/09/18 05:01:34;;;;;;;;;17.00;17.00;;;;;23.25;47.91;97083.87;116657;1177;90877;-69
2023/09/18 05:04:02;;;;;;;;;19.00;18.00;;;;;23.12;48.15;97083.84;116631;1180;97734;-61
2023/09/18 05:06:30;;;;;;;;;21.00;21.00;;;;;23.08;48.13;97082.85;116760;1179;92521;-61
2023/09/18 05:08:58;;;;;;;;;19.00;19.00;;;;;23.12;47.84;97081.65;116596;1180;73281;-64
2023/09/18 05:11:27;;;;;;;;;17.50;17.50;;;;;22.95;48.16;97080.73;116675;1177;91148;-60
2023/09/18 05:13:55;;;;;;;;;27.00;24.00;;;;;22.88;48.29;97082.04;116440;1182;98314;-63
2023/09/18 05:16:23;;;;;;;;;19.00;19.00;;;;;22.97;48.14;97080.13;116600;1190;91772;-60
2023/09/18 05:18:51;;;;;;;;;21.50;19.00;;;;;23.12;47.96;97076.11;116720;1177;73639;-61
2023/09/18 05:21:24;;;;;;;;;24.00;20.50;;;;;23.17;47.97;97075.98;116663;1191;91248;-65
2023/09/18 05:23:53;;;;;;;;;23.50;19.50;;;;;23.20;48.23;97078.55;116604;1178;98336;-63
2023/09/18 05:26:24;;;;;;;;;19.50;19.00;;;;;23.07;48.76;97081.73;116679;1177;91619;-71
2023/09/18 05:28:54;;;;;;;;;19.00;19.00;;;;;23.23;48.46;97077.70;116579;1183;74110;-64
2023/09/18 05:31:22;;;;;;;;;17.00;17.00;;;;;23.29;48.25;97074.56;116625;1179;90528;-66
2023/09/18 05:33:51;;;;;;;;;21.00;20.00;;;;;23.33;47.94;97072.20;116524;1177;98281;-63
2023/09/18 05:36:18;;;;;;;;;22.50;18.00;;;;;23.22;48.34;97077.56;116572;1183;93236;-63
2023/09/18 05:38:46;;;;;;;;;17.00;16.00;;;;;23.27;48.42;97071.49;116666;1177;73036;-63
2023/09/18 05:41:15;;;;;;;;;30.50;26.00;;;;;23.30;48.67;97074.27;116558;1188;91511;-66
2023/09/18 05:43:43;;;;;;;;;31.50;30.50;;;;;23.31;48.68;97072.60;116662;1177;97559;-63
2023/09/18 05:46:11;;;;;;;;;32.50;29.00;;;;;23.33;48.76;97075.77;116722;1177;91445;-66
2023/09/18 05:48:39;;;;;;;;;42.50;34.00;;;;;23.28;49.36;97080.36;116867;1177;73118;-64
2023/09/18 05:51:07;;;;;;;;;38.50;27.50;;;;;23.36;50.21;97081.36;116589;1180;91513;-70
2023/09/18 05:53:37;;;;;;;;;35.00;30.50;;;;;23.72;49.91;97080.25;116688;1187;96801;-72
2023/09/18 05:56:06;;;;;;;;;33.00;29.00;;;;;23.78;49.51;97078.58;116492;1180;93276;-73
2023/09/18 05:58:35;;;;;;;;;31.00;29.00;;;;;23.78;48.75;97073.98;116626;1181;73587;-71
2023/09/18 06:01:03;;;;;;;;;32.50;29.00;;;;;23.56;48.65;97072.28;116787;1187;90201;-71
2023/09/18 06:03:35;;;;;;;;;29.50;27.50;;;;;23.59;48.43;97070.08;116655;1177;97781;-71
2023/09/18 06:06:05;;;;;;;;;29.00;29.00;;;;;23.56;48.45;97071.29;116648;1182;91805;-72
2023/09/18 06:08:33;;;;;;;;;25.50;24.00;;;;;23.57;48.35;97070.33;116653;1180;72813;-71
2023/09/18 06:11:02;;;;;;;;;35.50;31.50;;;;;23.56;48.38;97071.25;116892;1180;90522;-66
2023/09/18 06:13:30;;;;;;;;;23.00;22.00;;;;;23.59;50.14;97072.30;116561;1181;97747;-73
2023/09/18 06:15:58;;;;;;;;;27.50;27.50;;;;;23.60;48.99;97072.64;116578;1180;91622;-74
2023/09/18 06:18:26;;;;;;;;;29.00;27.00;;;;;23.48;49.10;97072.98;116737;1189;73464;-74
2023/09/18 06:20:55;;;;;;;;;21.00;21.00;;;;;23.33;49.12;97071.34;116593;1177;90800;-73
2023/09/18 06:23:23;;;;;;;;;27.00;23.50;;;;;23.28;49.29;97066.35;116657;1191;96954;-73
2023/09/18 06:25:56;;;;;;;;;30.00;29.00;;;;;23.24;49.49;97065.33;116538;1180;91642;-71
2023/09/18 06:28:24;;;;;;;;;30.00;29.00;;;;;23.25;49.52;97068.00;116710;1190;72952;-70
2023/09/18 06:30:53;;;;;;;;;23.50;23.50;;;;;23.27;49.40;97069.48;116485;1183;91869;-72
2023/09/18 06:33:22;;;;;;;;;28.00;27.00;;;;;23.25;49.64;97071.72;116649;1187;97923;-70
2023/09/18 06:35:52;;;;;;;;;26.00;26.00;;;;;23.27;49.35;97069.63;116554;1177;92203;-67
2023/09/18 06:38:20;;;;;;;;;28.50;28.50;;;;;23.27;49.44;97067.36;116624;1177;74032;-71
2023/09/18 06:40:48;;;;;;;;;25.00;23.50;;;;;23.28;49.49;97067.72;116528;1178;90309;-69
2023/09/18 06:43:16;;;;;;;;;27.50;27.50;;;;;23.31;49.26;97070.08;116571;1191;97930;-68
2023/09/18 06:45:44;;;;;;;;;26.00;25.00;;;;;23.28;49.26;97068.05;116596;1177;91949;-67
2023/09/18 06:48:13;;;;;;;;;28.50;25.50;;;;;23.28;49.16;97068.73;116738;1177;73616;-65
2023/09/18 06:50:42;;;;;;;;;25.50;25.50;;;;;23.24;49.19;97068.79;116622;1179;90624;-67
2023/09/18 06:53:10;;;;;;;;;26.00;25.00;;;;;23.25;49.26;97068.96;116748;1181;98869;-70
2023/09/18 06:55:38;;;;;;;;;28.00;26.00;;;;;23.21;49.39;97063.94;116576;1177;91494;-69
2023/09/18 06:58:06;;;;;;;;;29.00;29.00;;;;;23.20;49.44;97062.98;116651;1177;73703;-72
2023/09/18 07:00:34;;;;;;;;;23.50;23.50;;;;;23.23;49.52;97061.73;116664;1177;89814;-70
2023/09/18 07:03:03;;;;;;;;;24.50;23.50;;;;;23.28;49.33;97063.04;116662;1191;98171;-69
2023/09/18 07:05:32;;;;;;;;;25.00;24.00;;;;;23.29;49.42;97063.59;116658;1179;92055;-67
2023/09/18 07:08:00;;;;;;;;;25.50;24.00;;;;;23.27;49.51;97060.44;116760;1184;73465;-67
2023/09/18 07:10:28;;;;;;;;;25.00;23.50;;;;;23.22;49.72;97058.07;116567;1177;91013;-70
2023/09/18 07:12:56;;;;;;;;;27.00;24.00;;;;;23.26;49.85;97059.27;116747;1177;98256;-72
2023/09/18 07:15:24;;;;;;;;;28.00;27.50;;;;;23.29;49.79;97061.73;116668;1177;92744;-73
2023/09/18 07:17:52;;;;;;;;;27.00;26.50;;;;;23.31;49.87;97061.73;116663;1190;73511;-68
2023/09/18 07:20:22;;;;;;;;;25.50;25.50;;;;;23.36;49.93;97065.64;116629;1183;90318;-68
2023/09/18 07:22:51;;;;;;;;;26.50;25.50;;;;;23.40;50.00;97066.38;116656;1191;97486;-68
2023/09/18 07:25:18;;;;;;;;;24.50;24.50;;;;;23.43;50.09;97065.83;116559;1191;92486;-67
2023/09/18 07:27:46;;;;;;;;;23.00;23.00;;;;;23.51;49.82;97066.27;116815;1187;74093;-69
2023/09/18 07:30:19;;;;;;;;;30.00;30.00;;;;;23.48;49.73;97070.20;116731;1190;91923;-66
2023/09/18 07:32:47;;;;;;;;;28.50;28.50;;;;;23.49;49.82;97071.48;116640;1184;98132;-68
2023/09/18 07:35:16;;;;;;;;;29.50;28.00;;;;;23.43;50.15;97073.45;116581;1183;92478;-66
2023/09/18 07:37:46;;;;;;;;;30.00;28.50;;;;;23.42;50.17;97072.28;116701;1177;73871;-66
2023/09/18 07:40:16;;;;;;;;;30.00;27.00;;;;;23.47;50.10;97065.77;116771;1190;89882;-68
2023/09/18 07:42:44;;;;;;;;;30.00;28.50;;;;;23.49;50.08;97062.61;116861;1187;98297;-66
2023/09/18 07:45:12;;;;;;;;;29.50;29.50;;;;;23.47;50.22;97060.86;117000;1177;92782;-66
2023/09/18 07:47:40;;;;;;;;;30.50;29.50;;;;;23.46;50.38;97061.66;116907;1187;72223;-68
2023/09/18 07:50:09;;;;;;;;;29.00;29.00;;;;;23.42;50.54;97062.98;116649;1177;91307;-67
2023/09/18 07:52:37;;;;;;;;;31.50;31.00;;;;;23.44;50.67;97061.44;116865;1184;98119;-68
2023/09/18 07:55:06;;;;;;;;;36.00;31.00;;;;;23.45;50.72;97055.91;116649;1177;91164;-69
2023/09/18 07:57:35;;;;;;;;;34.00;30.00;;;;;23.52;50.68;97058.13;116922;1177;74120;-67
2023/09/18 08:00:12;;;;;;;;;31.00;31.00;;;;;23.58;50.29;97054.70;116798;1177;90347;-68
2023/09/18 08:02:40;;;;;;;;;31.00;27.00;;;;;23.61;50.34;97054.25;116732;1177;97755;-66
2023/09/18 08:05:09;;;;;;;;;31.00;29.00;;;;;23.66;50.37;97050.05;116662;1179;93163;-68
2023/09/18 08:07:37;;;;;;;;;30.00;30.00;;;;;23.64;50.46;97050.59;116740;1182;73047;-67
2023/09/18 08:10:08;;;;;;;;;32.00;31.00;;;;;23.67;50.38;97048.98;116802;1184;90169;-70
2023/09/18 08:12:36;;;;;;;;;32.50;31.00;;;;;23.71;50.47;97050.40;116704;1177;97983;-67
2023/09/18 08:15:06;;;;;;;;;33.00;31.00;;;;;23.71;50.43;97056.41;116719;1177;91244;-70
2023/09/18 08:17:34;;;;;;;;;32.00;30.00;;;;;23.70;50.47;97050.64;116730;1179;73424;-73
2023/09/18 08:20:11;;;;;;;;;27.50;26.50;;;;;23.74;50.44;97047.20;116658;1190;90782;-70
2023/09/18 08:22:40;;;;;;;;;27.00;27.00;;;;;23.72;50.55;97044.02;116691;1184;98141;-68
2023/09/18 08:25:10;;;;;;;;;30.00;29.00;;;;;23.73;50.56;97040.13;116738;1177;91470;-72
2023/09/18 08:27:44;;;;;;;;;28.00;28.00;;;;;23.73;50.56;97045.25;116700;1177;73301;-69
2023/09/18 08:30:13;;;;;;;;;31.50;28.00;;;;;23.70;50.79;97043.89;116527;1177;90370;-67
2023/09/18 08:32:42;;;;;;;;;33.00;30.50;;;;;23.73;50.69;97042.20;116602;1177;98309;-68
2023/09/18 08:35:10;;;;;;;;;35.00;29.50;;;;;23.77;50.73;97044.88;116572;1183;93005;-69
2023/09/18 08:37:41;;;;;;;;;31.00;28.50;;;;;23.82;50.58;97039.81;116800;1177;73466;-69
2023/09/18 08:40:13;;;;;;;;;31.50;30.00;;;;;23.88;50.35;97038.98;116545;1180;90034;-73
2023/09/18 08:42:46;;;;;;;;;32.00;30.00;;;;;23.91;50.19;97037.51;116656;1177;98822;-67
2023/09/18 08:45:33;;;;;;;;;29.00;27.50;;;;;23.92;50.31;97040.11;116606;1177;91981;-69
2023/09/18 08:48:01;;;;;;;;;29.00;29.00;;;;;23.97;50.11;97034.17;116858;1177;72900;-72
2023/09/18 08:50:30;;;;;;;;;31.50;28.00;;;;;24.03;49.91;97031.17;116614;1190;89211;-71
2023/09/18 08:52:58;;;;;;;;;28.00;28.00;;;;;24.10;49.82;97032.23;116718;1190;97453;-72
2023/09/18 08:55:26;;;;;;;;;25.00;23.00;;;;;24.11;49.52;97029.66;116524;1179;93076;-73
2023/09/18 08:57:55;;;;;;;;;28.00;28.00;;;;;24.15;49.41;97030.46;116687;1184;73553;-75
2023/09/18 09:00:23;;;;;;;;;32.00;30.00;;;;;24.20;49.16;97029.48;116574;1177;90462;-68
2023/09/18 09:02:54;;;;;;;;;26.50;24.50;;;;;24.30;48.96;97028.98;116594;1178;97285;-70
2023/09/18 09:05:23;;;;;;;;;23.50;23.50;;;;;24.32;48.83;97027.83;116529;1178;92983;-74
2023/09/18 09:07:51;;;;;;;;;25.50;23.00;;;;;24.38;48.79;97026.85;116708;1179;72439;-73
2023/09/18 09:10:20;;;;;;;;;24.00;24.00;;;;;24.37;48.70;97028.20;116631;1187;90414;-69
2023/09/18 09:12:57;;;;;;;;;22.00;22.00;;;;;24.38;48.75;97024.71;116613;1177;97808;-69
2023/09/18 09:15:32;;;;;;;;;21.50;21.50;;;;;24.43;48.50;97027.18;116574;1183;91841;-73
2023/09/18 09:18:05;;;;;;;;;22.50;21.50;;;;;24.45;48.56;97021.80;116724;1187;74494;-75
2023/09/18 09:20:35;;;;;;;;;23.50;23.50;;;;;24.52;48.30;97024.43;116629;1177;90301;-68
2023/09/18 09:23:08;;;;;;;;;22.00;22.00;;;;;24.92;48.40;97022.65;116697;1190;97988;-71
2023/09/18 09:25:36;;;;;;;;;24.00;21.00;;;;;25.27;48.02;97019.98;116612;1177;91405;-69
2023/09/18 09:28:07;;;;;;;;;22.00;20.00;;;;;25.58;47.29;97018.23;116814;1187;73323;-71
2023/09/18 10:46:14;;;;;;;;;26.50;25.00;;;;;28.27;39.75;96944.45;115405;1194;64974;-70
2023/09/18 11:10:55;;;;;;;;;24.00;23.50;;;;;28.15;41.17;96926.05;114964;1196;65211;-67
2023/09/18 11:26:11;;;;;;;;;28.00;25.00;;;;;26.45;42.90;96927.80;115118;1195;64765;-70
2023/09/18 11:31:05;;;;;;;;;23.00;22.00;;;;;27.79;41.21;96911.20;115350;1194;64792;-67
2023/09/18 11:33:36;;;;;;;;;23.50;20.00;;;;;28.08;39.87;96908.50;116568;1180;91308;-65
2023/09/18 11:36:12;;;;;;;;;21.00;21.00;;;;;28.26;39.17;96905.31;116502;1180;97595;-69
2023/09/18 11:39:03;;;;;;;;;22.00;21.00;;;;;28.36;39.16;96903.62;116695;1180;91168;-63
2023/09/18 11:41:34;;;;;;;;;23.50;23.50;;;;;28.65;38.05;96904.65;116709;1180;72714;-71
2023/09/18 11:44:16;;;;;;;;;19.00;17.67;;;;;29.24;37.89;96897.85;116814;1180;91388;-65
2023/09/18 11:46:51;;;;;;;;;18.00;17.50;;;;;29.10;37.35;96901.70;116579;1180;98516;-63
2023/09/18 11:49:27;;;;;;;;;19.50;19.50;;;;;29.01;37.83;96895.21;116546;1185;90422;-65
2023/09/18 11:51:58;;;;;;;;;20.00;20.00;;;;;28.98;37.71;96895.59;116639;1188;72990;-67
